Time;durP1;ratioP1;P1;durP2;ratioP2;P2;SDS_P1;SDS_P2;PMS_P1;PMS_P2;Temp;Humidity;BMP_temperature;BMP_pressure;BME280_temperature;BME280_humidity;BME280_pressure;Samples;Min_cycle;Max_cycle;Signal;HPM_P1;HPM_P2
2022/12/08 00:01:34;;;;;;;6.87;3.20;;;1.10;99.90;;;;;;5088571;28;20639;-71
2022/12/08 00:04:01;;;;;;;7.13;3.53;;;1.20;99.90;;;;;;5100796;28;20223;-71
2022/12/08 00:09:22;;;;;;;5.10;3.30;;;1.20;99.90;;;;;;5087487;28;20206;-71
2022/12/08 00:11:51;;;;;;;5.53;3.30;;;1.30;99.90;;;;;;5096483;28;20575;-71
2022/12/08 00:14:17;;;;;;;3.33;2.97;;;1.30;99.90;;;;;;5102002;28;20295;-71
2022/12/08 00:16:45;;;;;;;4.57;3.37;;;1.40;99.90;;;;;;5087638;28;20290;-71
2022/12/08 00:19:12;;;;;;;5.67;4.00;;;1.50;99.90;;;;;;5087726;28;20628;-71
2022/12/08 00:21:38;;;;;;;3.77;3.23;;;1.40;99.90;;;;;;5106406;28;20296;-71
2022/12/08 00:24:06;;;;;;;4.87;3.53;;;1.40;99.90;;;;;;5105482;28;20244;-72
2022/12/08 00:26:34;;;;;;;5.40;4.30;;;1.40;99.90;;;;;;5087598;28;20207;-72
2022/12/08 00:29:01;;;;;;;8.10;4.10;;;1.30;99.90;;;;;;5106280;28;20301;-71
2022/12/08 00:31:28;;;;;;;6.37;4.43;;;1.30;99.90;;;;;;5103651;28;20286;-73
2022/12/08 00:33:54;;;;;;;4.57;4.17;;;1.30;99.90;;;;;;5087545;28;20298;-73
2022/12/08 00:36:22;;;;;;;5.53;4.43;;;1.30;99.90;;;;;;5087266;28;20242;-73
2022/12/08 00:38:49;;;;;;;6.90;4.47;;;1.30;99.90;;;;;;5087581;28;20293;-73
2022/12/08 00:41:18;;;;;;;5.63;4.80;;;1.30;99.90;;;;;;5088362;28;20325;-73
2022/12/08 00:43:46;;;;;;;7.33;4.73;;;1.30;99.90;;;;;;5107631;28;20218;-73
2022/12/08 00:46:13;;;;;;;6.17;4.50;;;1.20;99.90;;;;;;5107903;28;20332;-73
2022/12/08 00:48:40;;;;;;;11.20;4.97;;;1.30;99.90;;;;;;5107773;28;20237;-73
2022/12/08 00:51:06;;;;;;;6.40;5.27;;;1.30;99.90;;;;;;5107736;28;20659;-73
2022/12/08 00:53:33;;;;;;;5.37;4.40;;;1.40;99.90;;;;;;5106088;28;20766;-73
2022/12/08 00:56:00;;;;;;;5.63;4.80;;;1.40;99.90;;;;;;5087305;28;20639;-73
2022/12/08 00:58:27;;;;;;;6.37;5.03;;;1.40;99.90;;;;;;5087548;28;20294;-72
2022/12/08 01:00:55;;;;;;;8.13;5.40;;;1.50;99.90;;;;;;5087282;28;20289;-72
2022/12/08 01:03:22;;;;;;;6.73;4.70;;;1.60;99.90;;;;;;5095577;28;20313;-73
2022/12/08 01:05:49;;;;;;;6.50;4.93;;;1.60;99.90;;;;;;5087824;28;20712;-73
2022/12/08 01:08:16;;;;;;;5.63;5.13;;;1.60;99.90;;;;;;5087049;28;20302;-72
2022/12/08 01:10:43;;;;;;;6.60;4.93;;;1.60;99.90;;;;;;5087155;28;20199;-72
2022/12/08 01:13:10;;;;;;;5.33;4.23;;;1.70;99.90;;;;;;5087301;28;20297;-72
2022/12/08 01:15:37;;;;;;;6.80;4.73;;;1.70;99.90;;;;;;5087294;28;20206;-72
2022/12/08 01:18:05;;;;;;;5.57;4.90;;;1.70;99.90;;;;;;5096318;28;20206;-72
2022/12/08 01:20:32;;;;;;;5.63;5.07;;;1.70;99.90;;;;;;5105859;28;20687;-72
2022/12/08 01:22:59;;;;;;;5.37;4.70;;;1.70;99.90;;;;;;5107381;28;20227;-72
2022/12/08 01:25:26;;;;;;;5.27;4.23;;;1.70;99.90;;;;;;5107436;28;20309;-72
2022/12/08 01:27:53;;;;;;;5.70;4.30;;;1.70;99.90;;;;;;5107410;28;20685;-72
2022/12/08 01:30:21;;;;;;;6.90;4.30;;;1.70;99.90;;;;;;5097244;28;20234;-73
2022/12/08 01:32:48;;;;;;;4.87;4.00;;;1.80;99.90;;;;;;5086738;28;20213;-73
2022/12/08 01:35:16;;;;;;;4.27;3.87;;;1.80;99.90;;;;;;5106917;28;20332;-73
2022/12/08 01:37:43;;;;;;;5.60;4.30;;;1.80;99.90;;;;;;5107592;28;20242;-73
2022/12/08 01:40:10;;;;;;;4.90;4.10;;;1.80;99.90;;;;;;5107050;28;20316;-73
2022/12/08 01:42:37;;;;;;;5.03;4.20;;;1.90;99.90;;;;;;5094980;28;20298;-73
2022/12/08 01:45:07;;;;;;;6.23;4.20;;;1.90;99.90;;;;;;5086892;28;20226;-73
2022/12/08 01:47:47;;;;;;;5.60;4.43;;;1.90;99.90;;;;;;5094269;28;20198;-73
2022/12/08 01:50:18;;;;;;;5.07;4.60;;;1.90;99.90;;;;;;5104262;28;20310;-73
2022/12/08 01:52:48;;;;;;;5.43;4.67;;;1.90;99.90;;;;;;5090402;28;20294;-73
2022/12/08 01:55:19;;;;;;;6.73;4.57;;;1.90;99.90;;;;;;5089802;28;20673;-73
2022/12/08 01:57:49;;;;;;;4.70;4.30;;;1.90;99.90;;;;;;5090383;28;20209;-73
2022/12/08 02:00:18;;;;;;;4.97;4.53;;;1.80;99.90;;;;;;5095992;28;20211;-73
2022/12/08 02:02:52;;;;;;;5.57;4.73;;;1.80;99.90;;;;;;5090380;28;20202;-73
2022/12/08 02:05:23;;;;;;;5.23;4.73;;;1.80;99.90;;;;;;5091314;28;20329;-72
2022/12/08 02:07:50;;;;;;;5.10;4.60;;;1.90;99.90;;;;;;5090064;28;20282;-72
2022/12/08 02:10:19;;;;;;;5.77;5.17;;;1.90;99.90;;;;;;5089766;28;20246;-72
2022/12/08 02:12:48;;;;;;;5.23;4.83;;;1.90;99.90;;;;;;5090181;28;20234;-71
2022/12/08 02:15:15;;;;;;;5.10;4.60;;;1.90;99.90;;;;;;5089926;28;20330;-71
2022/12/08 02:17:54;;;;;;;4.90;4.30;;;1.90;99.90;;;;;;5089849;28;20301;-71
2022/12/08 02:20:33;;;;;;;4.17;3.77;;;1.90;99.90;;;;;;5099631;28;20300;-71
2022/12/08 02:23:06;;;;;;;4.23;3.83;;;1.80;99.90;;;;;;5104617;28;20298;-71
2022/12/08 02:25:42;;;;;;;4.23;3.87;;;1.80;99.90;;;;;;5090042;28;20258;-71
2022/12/08 02:28:36;;;;;;;4.47;4.10;;;1.80;99.90;;;;;;5089501;28;20286;-71
2022/12/08 02:31:17;;;;;;;4.63;4.23;;;1.80;99.90;;;;;;5105707;28;20348;-72
2022/12/08 02:34:15;;;;;;;4.47;4.00;;;1.70;99.90;;;;;;5109968;28;20289;-72
2022/12/08 02:36:53;;;;;;;5.23;4.30;;;1.70;99.90;;;;;;5102024;28;20661;-73
2022/12/08 02:39:32;;;;;;;4.00;3.60;;;1.70;99.90;;;;;;5109547;28;20199;-73
2022/12/08 02:42:05;;;;;;;4.70;4.30;;;1.80;99.90;;;;;;5109865;28;20272;-73
2022/12/08 02:44:36;;;;;;;5.13;4.30;;;1.80;99.90;;;;;;5110038;28;20222;-73
2022/12/08 02:47:08;;;;;;;4.70;4.30;;;1.80;99.90;;;;;;5109948;28;20365;-73
2022/12/08 02:49:36;;;;;;;4.37;4.07;;;1.80;99.90;;;;;;5109690;28;20229;-73
2022/12/08 02:52:28;;;;;;;4.63;4.23;;;1.80;99.90;;;;;;5109864;28;20202;-73
2022/12/08 02:54:59;;;;;;;4.60;4.20;;;1.80;99.90;;;;;;5099375;28;20206;-73
2022/12/08 02:57:37;;;;;;;4.57;3.87;;;1.70;99.90;;;;;;5089469;28;20205;-73
2022/12/08 03:00:08;;;;;;;4.33;3.73;;;1.70;99.90;;;;;;5093380;28;20285;-73
2022/12/08 03:02:56;;;;;;;4.87;4.47;;;1.70;99.90;;;;;;5109457;28;20197;-73
2022/12/08 03:05:40;;;;;;;4.50;4.10;;;1.70;99.90;;;;;;5109428;28;20863;-72
2022/12/08 03:08:14;;;;;;;4.30;3.90;;;1.70;99.90;;;;;;5088937;28;20278;-73
2022/12/08 03:10:45;;;;;;;4.73;4.33;;;1.70;99.90;;;;;;5088753;28;20233;-74
2022/12/08 03:13:15;;;;;;;4.47;4.07;;;1.70;99.90;;;;;;5088776;28;20734;-74
2022/12/08 03:15:45;;;;;;;4.50;4.20;;;1.70;99.90;;;;;;5089358;28;20716;-72
2022/12/08 03:18:15;;;;;;;3.80;3.40;;;1.70;99.90;;;;;;5096961;28;20195;-73
2022/12/08 03:20:46;;;;;;;4.23;3.83;;;1.70;99.90;;;;;;5099084;28;20687;-73
2022/12/08 03:23:15;;;;;;;4.47;4.07;;;1.70;99.90;;;;;;5097309;28;20218;-71
2022/12/08 03:25:48;;;;;;;4.27;3.83;;;1.70;99.90;;;;;;5097086;28;20719;-73
2022/12/08 03:28:16;;;;;;;3.80;3.50;;;1.70;99.90;;;;;;5097082;28;20599;-73
2022/12/08 03:30:45;;;;;;;4.10;3.70;;;1.70;99.90;;;;;;5093488;28;20206;-72
2022/12/08 03:33:18;;;;;;;4.33;3.70;;;1.70;99.90;;;;;;5086332;28;20290;-73
2022/12/08 03:35:47;;;;;;;3.87;3.57;;;1.70;99.90;;;;;;5086712;28;20206;-73
2022/12/08 03:38:17;;;;;;;4.00;3.70;;;1.70;99.90;;;;;;5086385;28;20211;-72
2022/12/08 03:41:16;;;;;;;3.73;3.43;;;1.70;99.90;;;;;;5086005;28;20322;-73
2022/12/08 03:43:31;;;;;;;4.57;4.17;;;1.80;99.90;;;;;;5091112;28;20573;-73
2022/12/08 03:45:58;;;;;;;6.17;5.57;;;1.80;99.90;;;;;;5089658;28;20199;-73
2022/12/08 03:48:25;;;;;;;4.60;4.10;;;1.90;99.90;;;;;;5086135;28;20274;-72
2022/12/08 03:50:53;;;;;;;4.67;4.10;;;1.90;99.90;;;;;;5098676;28;20300;-73
2022/12/08 03:53:20;;;;;;;4.60;4.17;;;1.90;99.90;;;;;;5101362;28;20301;-73
2022/12/08 03:55:47;;;;;;;5.30;4.10;;;1.90;99.90;;;;;;5098232;28;20202;-72
2022/12/08 03:58:14;;;;;;;4.43;4.03;;;1.90;99.90;;;;;;5085605;28;20207;-72
2022/12/08 04:00:40;;;;;;;4.70;4.30;;;1.90;99.90;;;;;;5093359;28;20802;-73
2022/12/08 04:03:07;;;;;;;4.77;4.33;;;1.90;99.90;;;;;;5088540;28;20290;-72
2022/12/08 04:05:34;;;;;;;5.00;4.50;;;1.90;99.90;;;;;;5085962;28;20237;-73
2022/12/08 04:08:03;;;;;;;5.00;4.60;;;1.90;99.90;;;;;;5093241;28;20294;-73
2022/12/08 04:10:29;;;;;;;4.67;4.27;;;1.90;99.90;;;;;;5085870;28;20236;-73
2022/12/08 04:12:57;;;;;;;5.30;4.90;;;1.90;99.90;;;;;;5086008;28;20252;-73
2022/12/08 04:15:24;;;;;;;5.60;4.53;;;1.90;99.90;;;;;;5086673;28;20289;-73
2022/12/08 04:17:51;;;;;;;5.83;5.30;;;1.80;99.90;;;;;;5086266;28;20856;-73
2022/12/08 04:20:18;;;;;;;5.70;5.20;;;1.80;99.90;;;;;;5095226;28;20632;-73
2022/12/08 04:22:45;;;;;;;5.87;4.87;;;1.80;99.90;;;;;;5106419;28;20345;-73
2022/12/08 04:25:13;;;;;;;5.70;4.80;;;1.80;99.90;;;;;;5107584;28;20337;-73
2022/12/08 04:27:40;;;;;;;6.83;5.33;;;1.80;99.90;;;;;;5107519;28;20756;-73
2022/12/08 04:30:08;;;;;;;5.27;4.87;;;1.80;99.90;;;;;;5107625;28;20727;-73
2022/12/08 04:32:35;;;;;;;5.73;5.23;;;1.80;99.90;;;;;;5107788;28;20321;-73
2022/12/08 04:35:01;;;;;;;6.20;5.67;;;1.80;99.90;;;;;;5107883;28;20252;-73
2022/12/08 04:37:28;;;;;;;6.00;5.40;;;1.80;99.90;;;;;;5107351;28;20660;-73
2022/12/08 04:39:55;;;;;;;6.10;5.60;;;1.70;99.90;;;;;;5106786;28;21030;-73
2022/12/08 04:42:23;;;;;;;7.00;5.80;;;1.80;99.90;;;;;;5107583;28;20200;-73
2022/12/08 04:44:50;;;;;;;6.60;6.00;;;1.70;99.90;;;;;;5107396;28;20229;-73
2022/12/08 04:47:17;;;;;;;6.77;6.07;;;1.70;99.90;;;;;;5105538;28;20300;-73
2022/12/08 04:49:44;;;;;;;6.57;5.97;;;1.60;99.90;;;;;;5089809;28;20303;-73
2022/12/08 04:52:11;;;;;;;11.83;6.63;;;1.60;99.90;;;;;;5107015;28;20289;-73
2022/12/08 04:54:37;;;;;;;9.23;6.47;;;1.60;99.90;;;;;;5106994;28;20209;-73
2022/12/08 04:57:04;;;;;;;7.20;6.50;;;1.60;99.90;;;;;;5107483;28;20300;-73
2022/12/08 04:59:33;;;;;;;7.67;6.90;;;1.70;99.90;;;;;;5107444;28;20198;-73
2022/12/08 05:01:59;;;;;;;7.37;6.67;;;1.70;99.90;;;;;;5107562;28;20509;-73
2022/12/08 05:04:26;;;;;;;7.20;6.60;;;1.70;99.90;;;;;;5107648;28;21067;-73
2022/12/08 05:06:53;;;;;;;8.10;7.23;;;1.70;99.90;;;;;;5107684;28;20198;-73
2022/12/08 05:09:21;;;;;;;8.63;7.00;;;1.80;99.90;;;;;;5107213;28;20209;-73
2022/12/08 05:11:47;;;;;;;8.80;7.90;;;1.70;99.90;;;;;;5107251;28;20684;-73
2022/12/08 05:14:16;;;;;;;8.40;7.50;;;1.80;99.90;;;;;;5106948;28;20210;-73
2022/12/08 05:16:45;;;;;;;7.90;7.03;;;1.80;99.90;;;;;;5107369;28;20206;-73
2022/12/08 05:19:12;;;;;;;11.43;7.67;;;1.80;99.90;;;;;;5107077;28;21037;-73
2022/12/08 05:21:40;;;;;;;8.90;7.47;;;1.80;99.90;;;;;;5086710;28;20318;-73
2022/12/08 05:24:07;;;;;;;9.30;8.03;;;1.80;99.90;;;;;;5089942;28;20321;-73
2022/12/08 05:26:34;;;;;;;10.53;7.80;;;1.80;99.90;;;;;;5091198;28;20242;-73
2022/12/08 05:29:01;;;;;;;12.97;8.40;;;1.80;99.90;;;;;;5091026;28;20209;-73
2022/12/08 05:31:28;;;;;;;10.67;7.67;;;1.80;99.90;;;;;;5091030;28;20297;-73
2022/12/08 05:33:56;;;;;;;9.50;7.90;;;1.80;99.90;;;;;;5090836;28;20294;-73
2022/12/08 05:36:23;;;;;;;9.27;7.57;;;1.80;99.90;;;;;;5102331;28;20673;-72
2022/12/08 05:38:50;;;;;;;12.23;8.67;;;1.80;99.90;;;;;;5111208;28;20288;-73
2022/12/08 05:41:20;;;;;;;13.23;8.00;;;1.90;99.90;;;;;;5110609;28;20273;-73
2022/12/08 05:43:48;;;;;;;9.57;7.83;;;1.90;99.90;;;;;;5106652;28;20740;-73
2022/12/08 05:46:15;;;;;;;15.53;8.93;;;1.90;99.90;;;;;;5090119;28;20344;-73
2022/12/08 05:48:42;;;;;;;12.77;8.03;;;1.90;99.90;;;;;;5093286;28;20305;-73
2022/12/08 05:51:18;;;;;;;10.30;8.63;;;1.90;99.90;;;;;;5096360;28;20214;-73
2022/12/08 05:53:45;;;;;;;10.07;8.20;;;2.00;99.90;;;;;;5090765;28;20282;-73
2022/12/08 05:56:12;;;;;;;13.57;9.07;;;2.00;99.90;;;;;;5090101;28;20301;-73
2022/12/08 05:58:39;;;;;;;10.47;8.53;;;2.00;99.90;;;;;;5089987;28;20206;-73
2022/12/08 06:01:06;;;;;;;9.57;8.33;;;2.00;99.90;;;;;;5090228;28;20701;-73
2022/12/08 06:03:33;;;;;;;11.10;8.90;;;2.00;99.90;;;;;;5089879;28;20297;-73
2022/12/08 06:06:00;;;;;;;10.73;8.73;;;2.00;99.90;;;;;;5090178;28;20238;-73
2022/12/08 06:08:28;;;;;;;11.87;8.73;;;2.10;99.90;;;;;;5103474;28;20213;-73
2022/12/08 06:10:55;;;;;;;9.80;8.10;;;2.10;99.90;;;;;;5110272;28;20247;-73
2022/12/08 06:13:22;;;;;;;11.10;8.70;;;2.10;99.90;;;;;;5110243;28;20301;-73
2022/12/08 06:15:49;;;;;;;11.53;9.10;;;2.20;99.90;;;;;;5110358;28;20624;-73
2022/12/08 06:18:16;;;;;;;12.37;9.03;;;2.10;99.90;;;;;;5110257;28;20695;-72
2022/12/08 06:20:43;;;;;;;9.57;8.43;;;2.10;99.90;;;;;;5108242;28;20210;-73
2022/12/08 06:23:10;;;;;;;10.17;8.73;;;2.20;99.90;;;;;;5110259;28;20282;-73
2022/12/08 06:25:38;;;;;;;10.83;8.60;;;2.10;99.90;;;;;;5110153;28;20322;-73
2022/12/08 06:28:06;;;;;;;12.07;8.63;;;2.20;99.90;;;;;;5109816;28;20297;-73
2022/12/08 06:30:33;;;;;;;13.40;8.03;;;2.20;99.90;;;;;;5110226;28;20607;-73
2022/12/08 06:33:00;;;;;;;10.97;8.53;;;2.30;99.90;;;;;;5109574;27;20235;-73
2022/12/08 06:35:26;;;;;;;10.53;8.50;;;2.20;99.90;;;;;;5109977;28;20213;-73
2022/12/08 06:37:53;;;;;;;10.13;8.20;;;2.20;99.90;;;;;;5109712;28;20202;-73
2022/12/08 06:40:20;;;;;;;10.50;8.07;;;2.20;99.90;;;;;;5109000;28;20932;-73
2022/12/08 06:42:49;;;;;;;10.07;8.13;;;2.30;99.90;;;;;;5109866;28;20622;-73
2022/12/08 06:45:17;;;;;;;9.63;8.47;;;2.30;99.90;;;;;;5109526;28;20687;-73
2022/12/08 06:47:44;;;;;;;10.07;8.30;;;2.30;99.90;;;;;;5101041;28;20199;-73
2022/12/08 06:50:13;;;;;;;11.57;8.50;;;2.30;99.90;;;;;;5095288;28;20201;-73
2022/12/08 06:52:41;;;;;;;13.87;8.80;;;2.20;99.90;;;;;;5109517;28;20205;-73
2022/12/08 06:55:09;;;;;;;13.17;9.37;;;2.30;99.90;;;;;;5109407;28;20214;-73
2022/12/08 06:57:36;;;;;;;10.63;8.70;;;2.30;99.90;;;;;;5109626;28;20230;-73
2022/12/08 07:00:06;;;;;;;11.67;8.97;;;2.30;99.90;;;;;;5109432;28;20198;-73
2022/12/08 07:02:33;;;;;;;14.80;8.97;;;2.30;99.90;;;;;;5109556;28;20281;-73
2022/12/08 07:05:00;;;;;;;11.33;8.27;;;2.30;99.90;;;;;;5109411;28;20515;-73
2022/12/08 07:07:27;;;;;;;10.90;8.20;;;2.30;99.90;;;;;;5109441;28;20229;-73
2022/12/08 07:09:54;;;;;;;13.03;8.20;;;2.30;99.90;;;;;;5109285;28;20241;-73
2022/12/08 07:12:21;;;;;;;12.90;7.90;;;2.30;99.90;;;;;;5109311;28;20208;-73
2022/12/08 07:14:48;;;;;;;13.57;8.80;;;2.30;99.90;;;;;;5109293;28;20620;-73
2022/12/08 07:17:16;;;;;;;9.87;8.40;;;2.30;99.90;;;;;;5109468;28;20351;-73
2022/12/08 07:19:46;;;;;;;15.27;8.57;;;2.30;99.90;;;;;;5109279;28;20200;-73
2022/12/08 07:22:13;;;;;;;11.47;8.20;;;2.30;99.90;;;;;;5109215;28;20309;-73
2022/12/08 07:24:40;;;;;;;11.43;9.00;;;2.40;99.90;;;;;;5108894;28;20202;-73
2022/12/08 07:27:07;;;;;;;9.73;8.70;;;2.40;99.90;;;;;;5109185;28;20212;-73
2022/12/08 07:29:34;;;;;;;11.77;8.73;;;2.40;99.90;;;;;;5109489;28;20202;-73
2022/12/08 07:32:01;;;;;;;10.53;8.17;;;2.40;99.90;;;;;;5109119;28;20206;-73
2022/12/08 07:34:29;;;;;;;9.37;8.43;;;2.40;99.90;;;;;;5109176;28;20285;-74
2022/12/08 07:36:56;;;;;;;12.07;8.57;;;2.40;99.90;;;;;;5105280;28;20214;-73
2022/12/08 07:39:23;;;;;;;11.67;8.67;;;2.40;99.90;;;;;;5088082;28;20226;-73
2022/12/08 07:41:49;;;;;;;10.73;7.93;;;2.40;99.90;;;;;;5097070;28;20295;-73
2022/12/08 07:44:16;;;;;;;9.37;7.80;;;2.40;99.90;;;;;;5108756;28;20289;-73
2022/12/08 07:46:43;;;;;;;9.73;7.53;;;2.50;99.90;;;;;;5108089;28;20324;-73
2022/12/08 07:49:10;;;;;;;9.67;8.03;;;2.50;99.90;;;;;;5108263;28;20747;-73
2022/12/08 07:51:38;;;;;;;8.90;7.23;;;2.50;99.90;;;;;;5108802;28;20293;-73
2022/12/08 07:54:05;;;;;;;13.30;7.67;;;2.60;99.90;;;;;;5108253;28;20213;-73
2022/12/08 07:56:33;;;;;;;10.23;7.90;;;2.50;99.90;;;;;;5108276;27;20768;-73
2022/12/08 07:59:01;;;;;;;9.53;7.63;;;2.50;99.90;;;;;;5108147;28;20255;-73
2022/12/08 08:01:31;;;;;;;14.20;7.77;;;2.50;99.90;;;;;;5108051;28;20700;-73
2022/12/08 08:04:00;;;;;;;10.57;7.70;;;2.50;99.90;;;;;;5108173;28;20292;-73
2022/12/08 08:06:27;;;;;;;11.90;7.80;;;2.50;99.90;;;;;;5107888;28;20803;-73
2022/12/08 08:08:56;;;;;;;8.47;7.57;;;2.50;99.90;;;;;;5107609;28;20212;-73
2022/12/08 08:11:23;;;;;;;8.33;7.40;;;2.60;99.90;;;;;;5108378;28;20262;-73
2022/12/08 08:13:51;;;;;;;8.77;7.23;;;2.60;99.90;;;;;;5107871;28;20198;-73
2022/12/08 08:16:19;;;;;;;10.50;8.17;;;2.60;99.90;;;;;;5108159;28;20217;-73
2022/12/08 08:18:47;;;;;;;11.87;8.00;;;2.60;99.90;;;;;;5108137;28;20297;-73
2022/12/08 08:21:15;;;;;;;10.27;7.73;;;2.60;99.90;;;;;;5107442;28;20603;-73
2022/12/08 08:23:41;;;;;;;9.87;8.03;;;2.60;99.90;;;;;;5107675;28;20300;-73
2022/12/08 08:26:10;;;;;;;11.23;8.33;;;2.60;99.90;;;;;;5107569;28;20316;-73
2022/12/08 08:28:37;;;;;;;8.10;6.87;;;2.60;99.90;;;;;;5107704;28;20811;-73
2022/12/08 08:31:05;;;;;;;11.37;7.53;;;2.70;99.90;;;;;;5107773;28;20205;-73
2022/12/08 08:33:32;;;;;;;12.07;7.77;;;2.70;99.90;;;;;;5107376;28;20289;-73
2022/12/08 08:35:59;;;;;;;10.23;7.47;;;2.70;99.90;;;;;;5107507;28;20320;-73
2022/12/08 08:38:26;;;;;;;9.87;7.10;;;2.80;99.90;;;;;;5107547;28;20287;-73
2022/12/08 08:40:53;;;;;;;10.80;7.20;;;2.80;99.90;;;;;;5106988;28;20238;-73
2022/12/08 08:43:30;;;;;;;7.80;7.00;;;2.80;99.90;;;;;;5107369;28;20216;-73
2022/12/08 08:45:58;;;;;;;11.60;7.53;;;2.80;99.90;;;;;;5107699;28;20224;-73
2022/12/08 08:48:25;;;;;;;9.60;6.90;;;2.80;99.90;;;;;;5093380;28;20566;-73
2022/12/08 08:50:52;;;;;;;11.10;7.87;;;2.80;99.90;;;;;;5098974;28;20201;-73
2022/12/08 08:53:20;;;;;;;12.63;8.00;;;2.80;99.90;;;;;;5107514;28;20590;-73
2022/12/08 08:55:47;;;;;;;10.67;7.90;;;2.80;99.90;;;;;;5107030;28;21013;-73
2022/12/08 08:58:14;;;;;;;7.83;6.93;;;2.90;99.90;;;;;;5110678;28;20251;-73
2022/12/08 09:00:43;;;;;;;9.40;7.33;;;2.90;99.90;;;;;;5111723;28;20245;-73
2022/12/08 09:03:10;;;;;;;8.70;7.47;;;2.90;99.90;;;;;;5111299;28;20664;-73
2022/12/08 09:05:38;;;;;;;13.50;7.93;;;2.90;99.90;;;;;;5111704;28;20309;-73
2022/12/08 09:08:05;;;;;;;10.00;7.77;;;2.90;99.90;;;;;;5111539;28;20209;-73
2022/12/08 09:10:32;;;;;;;9.77;7.20;;;2.90;99.90;;;;;;5111607;28;20240;-73
2022/12/08 09:12:59;;;;;;;10.93;7.47;;;3.00;99.90;;;;;;5110999;28;20767;-73
2022/12/08 09:15:26;;;;;;;11.47;7.80;;;3.00;99.90;;;;;;5111481;28;20685;-73
2022/12/08 09:17:54;;;;;;;10.03;7.90;;;3.00;99.90;;;;;;5111342;28;20748;-73
2022/12/08 09:20:21;;;;;;;8.53;7.07;;;3.00;99.90;;;;;;5111339;28;20234;-73
2022/12/08 09:22:48;;;;;;;13.10;7.67;;;3.00;99.90;;;;;;5110832;28;20236;-73
2022/12/08 09:25:14;;;;;;;9.93;7.40;;;3.00;99.90;;;;;;5110782;28;20321;-73
2022/12/08 09:27:41;;;;;;;8.03;7.23;;;3.00;99.90;;;;;;5111605;28;20571;-73
2022/12/08 09:30:09;;;;;;;9.40;7.40;;;3.00;99.90;;;;;;5101394;28;20651;-73
2022/12/08 09:32:36;;;;;;;10.50;7.77;;;3.00;99.90;;;;;;5091046;28;20234;-73
2022/12/08 09:35:05;;;;;;;8.87;7.43;;;3.00;99.90;;;;;;5104940;28;20289;-73
2022/12/08 09:37:31;;;;;;;10.07;7.97;;;3.10;99.90;;;;;;5111003;28;20244;-73
2022/12/08 09:39:58;;;;;;;9.47;7.40;;;3.10;99.90;;;;;;5110334;28;20650;-73
2022/12/08 09:42:41;;;;;;;10.20;8.03;;;3.10;99.90;;;;;;5111268;28;20206;-73
2022/12/08 09:45:11;;;;;;;10.70;7.53;;;3.10;99.90;;;;;;5111117;28;20251;-73
2022/12/08 09:47:42;;;;;;;8.30;7.50;;;3.20;99.90;;;;;;5110537;28;20826;-73
2022/12/08 09:50:18;;;;;;;9.83;7.60;;;3.20;99.90;;;;;;5110366;28;20237;-73
2022/12/08 09:53:00;;;;;;;8.00;7.20;;;3.20;99.90;;;;;;5110393;28;20312;-73
2022/12/08 09:55:38;;;;;;;8.70;6.63;;;3.20;99.90;;;;;;5110771;28;20190;-74
2022/12/08 09:58:11;;;;;;;8.77;7.17;;;3.20;99.90;;;;;;5110797;28;20190;-73
2022/12/08 10:00:38;;;;;;;7.40;6.60;;;3.30;99.90;;;;;;5098265;28;20243;-73
2022/12/08 10:03:07;;;;;;;7.60;6.80;;;3.30;99.90;;;;;;5090335;28;20238;-73
2022/12/08 10:05:41;;;;;;;8.40;6.27;;;3.20;99.90;;;;;;5089868;28;20293;-73
2022/12/08 10:08:16;;;;;;;9.07;6.60;;;3.30;99.90;;;;;;5089368;28;20559;-73
2022/12/08 10:10:47;;;;;;;8.20;6.07;;;3.30;99.90;;;;;;5089966;28;20194;-73
2022/12/08 10:13:24;;;;;;;6.97;6.27;;;3.30;99.90;;;;;;5090149;28;20277;-73
2022/12/08 10:16:01;;;;;;;7.80;6.53;;;3.30;99.90;;;;;;5090047;28;20207;-73
2022/12/08 10:18:30;;;;;;;8.50;6.57;;;3.30;99.90;;;;;;5090295;28;20313;-73
2022/12/08 10:21:10;;;;;;;6.73;5.77;;;3.30;99.90;;;;;;5104409;28;20518;-73
2022/12/08 10:23:39;;;;;;;7.20;6.07;;;3.40;99.90;;;;;;5110488;28;20700;-73
2022/12/08 10:26:12;;;;;;;6.67;5.90;;;3.40;99.90;;;;;;5102780;28;20235;-73
2022/12/08 10:28:39;;;;;;;7.37;6.33;;;3.40;99.90;;;;;;5089874;28;20194;-73
2022/12/08 10:31:06;;;;;;;7.30;6.17;;;3.40;99.90;;;;;;5107698;28;20652;-73
2022/12/08 10:33:33;;;;;;;7.77;6.00;;;3.40;99.90;;;;;;5109799;28;20301;-73
2022/12/08 10:36:03;;;;;;;6.67;6.00;;;3.50;99.90;;;;;;5109832;28;20206;-73
2022/12/08 10:38:32;;;;;;;10.07;5.47;;;3.50;99.90;;;;;;5109963;28;20237;-73
2022/12/08 10:41:04;;;;;;;7.23;5.83;;;3.50;99.90;;;;;;5109364;28;20273;-73
2022/12/08 10:43:32;;;;;;;7.17;5.50;;;3.50;99.90;;;;;;5110321;28;20286;-72
2022/12/08 10:46:10;;;;;;;6.63;5.50;;;3.50;99.90;;;;;;5109513;28;20326;-73
2022/12/08 10:48:36;;;;;;;6.13;5.63;;;3.50;99.90;;;;;;5093796;28;20198;-73
2022/12/08 10:51:05;;;;;;;6.10;5.33;;;3.50;99.90;;;;;;5089324;28;20298;-73
2022/12/08 10:53:33;;;;;;;7.00;5.47;;;3.50;99.90;;;;;;5089120;28;20295;-72
2022/12/08 10:56:14;;;;;;;8.83;5.70;;;3.50;99.90;;;;;;5093812;28;20300;-72
2022/12/08 10:58:43;;;;;;;7.20;6.00;;;3.50;99.90;;;;;;5109374;28;20696;-73
2022/12/08 11:01:13;;;;;;;6.03;5.43;;;3.50;99.90;;;;;;5109532;28;20293;-72
2022/12/08 11:03:46;;;;;;;8.00;6.20;;;3.50;99.90;;;;;;5109678;28;20294;-73
2022/12/08 11:06:17;;;;;;;5.67;5.17;;;3.40;99.90;;;;;;5109179;28;20218;-73
2022/12/08 11:08:48;;;;;;;6.03;5.53;;;3.30;99.90;;;;;;5109319;28;20719;-73
2022/12/08 11:11:16;;;;;;;5.93;5.33;;;3.20;99.90;;;;;;5109383;28;20190;-73
2022/12/08 11:13:43;;;;;;;8.07;5.63;;;3.10;99.90;;;;;;5109148;28;20296;-72
2022/12/08 11:16:13;;;;;;;6.87;5.87;;;2.90;99.90;;;;;;5109400;28;20292;-73
2022/12/08 11:18:42;;;;;;;6.17;5.67;;;2.90;99.90;;;;;;5109338;28;20277;-73
2022/12/08 11:21:11;;;;;;;7.10;6.30;;;2.80;99.90;;;;;;5104743;28;21150;-72
2022/12/08 11:23:42;;;;;;;7.17;6.47;;;2.80;99.90;;;;;;5088513;28;20298;-72
2022/12/08 11:26:23;;;;;;;8.07;6.63;;;2.80;99.90;;;;;;5095535;28;20245;-73
2022/12/08 11:28:50;;;;;;;8.90;7.13;;;2.80;99.90;;;;;;5108788;28;20665;-73
2022/12/08 11:31:27;;;;;;;10.63;7.60;;;2.80;99.90;;;;;;5109256;28;20202;-72
2022/12/08 11:33:54;;;;;;;8.27;7.17;;;2.80;99.90;;;;;;5109038;28;20190;-73
2022/12/08 11:36:24;;;;;;;10.80;7.63;;;2.80;99.90;;;;;;5109017;28;20296;-73
2022/12/08 11:38:56;;;;;;;9.97;7.73;;;2.80;99.90;;;;;;5108581;28;20205;-72
2022/12/08 11:41:29;;;;;;;8.73;7.67;;;2.80;99.90;;;;;;5108518;28;20337;-72
2022/12/08 11:44:03;;;;;;;9.07;8.00;;;2.80;99.90;;;;;;5108784;28;20329;-72
2022/12/08 11:46:34;;;;;;;8.90;8.00;;;2.90;99.90;;;;;;5108971;28;20313;-73
2022/12/08 11:49:03;;;;;;;12.97;8.03;;;2.90;99.90;;;;;;5089175;28;20208;-72
2022/12/08 11:51:33;;;;;;;11.23;7.70;;;2.90;99.90;;;;;;5105775;28;20232;-73
2022/12/08 11:54:17;;;;;;;8.80;7.67;;;2.90;99.90;;;;;;5107996;28;20289;-72
2022/12/08 11:56:46;;;;;;;8.77;7.73;;;2.90;99.90;;;;;;5108704;28;20279;-73
2022/12/08 11:59:22;;;;;;;11.57;8.57;;;2.90;99.90;;;;;;5108218;28;20244;-72
2022/12/08 12:01:49;;;;;;;8.30;7.50;;;3.00;99.90;;;;;;5108459;28;20251;-72
2022/12/08 12:04:23;;;;;;;12.73;8.47;;;3.00;99.90;;;;;;5108046;28;20657;-72
2022/12/08 12:07:16;;;;;;;10.83;8.80;;;3.00;99.90;;;;;;5107950;28;20272;-72
2022/12/08 12:09:59;;;;;;;8.93;7.47;;;3.00;99.90;;;;;;5107645;28;20277;-73
2022/12/08 12:12:43;;;;;;;10.53;8.10;;;3.10;99.90;;;;;;5108204;28;20682;-72
2022/12/08 12:15:54;;;;;;;9.70;8.20;;;3.10;99.90;;;;;;5108116;28;20190;-72
2022/12/08 12:18:26;;;;;;;8.67;7.77;;;3.10;99.90;;;;;;5087176;28;20707;-72
2022/12/08 12:20:56;;;;;;;9.30;7.10;;;3.10;99.90;;;;;;5107626;28;20311;-72
2022/12/08 12:23:29;;;;;;;8.77;7.10;;;3.10;99.90;;;;;;5107236;28;20580;-72
2022/12/08 12:26:01;;;;;;;10.23;7.33;;;3.20;99.90;;;;;;5107445;28;20657;-72
2022/12/08 12:28:33;;;;;;;7.30;6.60;;;3.10;99.90;;;;;;5108083;28;20307;-73
2022/12/08 12:31:05;;;;;;;7.63;6.53;;;3.10;99.90;;;;;;5107571;28;20190;-73
2022/12/08 12:33:32;;;;;;;9.50;7.63;;;3.20;99.90;;;;;;5108138;28;20197;-73
2022/12/08 12:36:04;;;;;;;10.53;7.37;;;3.20;99.90;;;;;;5107544;28;20205;-72
2022/12/08 12:41:25;;;;;;;9.00;7.70;;;3.20;99.90;;;;;;5107471;28;20245;-73
2022/12/08 12:44:23;;;;;;;9.63;7.70;;;3.20;99.90;;;;;;5107663;28;20576;-73
2022/12/08 12:46:58;;;;;;;9.97;7.70;;;3.20;99.90;;;;;;5106733;28;20335;-72
2022/12/08 12:50:06;;;;;;;7.90;7.07;;;3.20;99.90;;;;;;5100099;28;20201;-72
2022/12/08 12:52:43;;;;;;;9.60;6.47;;;3.20;99.90;;;;;;5107429;28;20276;-73
2022/12/08 12:55:50;;;;;;;7.33;6.63;;;3.20;99.90;;;;;;5107566;28;20235;-73
2022/12/08 12:58:39;;;;;;;7.10;6.40;;;3.20;99.90;;;;;;5083708;28;20209;-73
2022/12/08 13:01:48;;;;;;;6.70;6.10;;;3.10;99.90;;;;;;5107414;28;20202;-72
2022/12/08 13:04:16;;;;;;;7.37;6.03;;;3.10;99.90;;;;;;5107378;28;20724;-72
2022/12/08 13:06:46;;;;;;;7.33;5.80;;;3.10;99.90;;;;;;5107334;28;20348;-72
2022/12/08 13:09:27;;;;;;;8.80;6.70;;;3.10;99.90;;;;;;5107210;28;20222;-72
2022/12/08 13:11:58;;;;;;;8.10;6.53;;;3.10;99.90;;;;;;5107544;28;20239;-72
2022/12/08 13:14:32;;;;;;;7.27;6.43;;;3.10;99.90;;;;;;5103711;28;20206;-72
2022/12/08 13:17:01;;;;;;;8.07;7.00;;;3.00;99.90;;;;;;5087040;28;20229;-72